createdAt,value
2018-05-16T00:00:34.287Z,100097.42
2018-05-16T00:03:02.053Z,100092.32
2018-05-16T00:05:29.813Z,100088.89
2018-05-16T00:07:57.527Z,100086.15
2018-05-16T00:10:25.240Z,100087.48
2018-05-16T00:12:52.999Z,100080.80
2018-05-16T00:15:20.872Z,100077.55
2018-05-16T00:17:48.596Z,100081.64
2018-05-16T00:20:16.300Z,100086.08
2018-05-16T00:22:43.958Z,100095.11
2018-05-16T00:25:11.769Z,100098.21
2018-05-16T00:27:39.586Z,100106.27
2018-05-16T00:30:07.555Z,100110.30
2018-05-16T00:32:35.329Z,100115.25
2018-05-16T00:35:03.136Z,100122.30
2018-05-16T00:37:30.903Z,100115.00
2018-05-16T00:39:58.646Z,100122.12
2018-05-16T00:42:26.384Z,100128.98
2018-05-16T00:44:54.152Z,100129.32
2018-05-16T00:47:21.872Z,100128.92
2018-05-16T00:49:49.678Z,100129.77
2018-05-16T00:52:17.406Z,100135.45
2018-05-16T00:54:45.207Z,100127.52
2018-05-16T00:57:12.972Z,100129.16
2018-05-16T00:59:40.741Z,100130.03
2018-05-16T01:02:08.606Z,100131.27
2018-05-16T01:04:36.436Z,100129.18
2018-05-16T01:07:04.135Z,100124.78
2018-05-16T01:09:32.006Z,100134.67
2018-05-16T01:11:59.866Z,100147.08
2018-05-16T01:14:27.631Z,100170.08
2018-05-16T01:16:55.517Z,100170.78
2018-05-16T01:19:23.266Z,100174.25
2018-05-16T01:21:51.129Z,100173.72
2018-05-16T01:24:18.899Z,100163.43
2018-05-16T01:26:46.760Z,100168.05
2018-05-16T01:29:14.524Z,100164.66
2018-05-16T01:31:42.282Z,100168.98
2018-05-16T01:34:10.054Z,100159.29
2018-05-16T01:36:37.922Z,100155.44
2018-05-16T01:39:05.684Z,100144.15
2018-05-16T01:41:33.654Z,100127.73
2018-05-16T01:44:01.315Z,100116.16
2018-05-16T01:46:29.083Z,100115.55
2018-05-16T01:49:08.708Z,100134.40
2018-05-16T01:51:36.553Z,100133.31
2018-05-16T01:54:04.517Z,100125.56
2018-05-16T01:56:32.216Z,100126.59
2018-05-16T01:58:59.986Z,100134.52
2018-05-16T02:01:27.752Z,100147.89
2018-05-16T02:03:55.514Z,100147.47
2018-05-16T02:06:23.225Z,100151.62
2018-05-16T02:08:51.352Z,100153.27
2018-05-16T02:11:19.116Z,100161.63
2018-05-16T02:13:46.775Z,100153.98
2018-05-16T02:16:14.542Z,100151.80
2018-05-16T02:18:42.308Z,100144.91
2018-05-16T02:21:10.024Z,100137.72
2018-05-16T02:23:37.839Z,100138.38
2018-05-16T02:26:05.540Z,100128.94
2018-05-16T02:28:33.264Z,100127.28
2018-05-16T02:31:01.748Z,100124.70
2018-05-16T02:33:29.614Z,100129.86
2018-05-16T02:35:57.480Z,100124.16
2018-05-16T02:38:25.243Z,100117.34
2018-05-16T02:40:53.155Z,100109.20
2018-05-16T02:43:20.980Z,100083.08
2018-05-16T02:45:48.846Z,100090.82
2018-05-16T02:48:16.608Z,100087.59
2018-05-16T02:50:44.479Z,100087.33
2018-05-16T02:53:12.215Z,100079.97
2018-05-16T02:55:40.004Z,100076.04
2018-05-16T02:58:07.667Z,100084.47
2018-05-16T03:00:35.637Z,100074.91
2018-05-16T03:03:03.404Z,100070.28
2018-05-16T03:05:31.275Z,100074.28
2018-05-16T03:07:59.033Z,100066.20
2018-05-16T03:10:26.900Z,100063.55
2018-05-16T03:12:54.649Z,100060.56
2018-05-16T03:15:22.429Z,100052.21
2018-05-16T03:17:50.382Z,100050.69
2018-05-16T03:20:18.165Z,100053.53
2018-05-16T03:22:45.892Z,100055.44
2018-05-16T03:25:13.692Z,100052.21
2018-05-16T03:27:41.423Z,100046.77
2018-05-16T03:30:09.432Z,100053.47
2018-05-16T03:32:37.276Z,100053.34
2018-05-16T03:35:05.120Z,100053.30
2018-05-16T03:37:32.929Z,100045.67
2018-05-16T03:40:00.804Z,100052.52
2018-05-16T03:42:28.493Z,100049.47
2018-05-16T03:44:56.313Z,100058.14
2018-05-16T03:47:24.154Z,100059.27
2018-05-16T03:49:51.959Z,100056.84
2018-05-16T03:52:19.761Z,100056.32
2018-05-16T03:54:47.581Z,100062.61
2018-05-16T03:57:27.327Z,100052.69
2018-05-16T04:00:07.160Z,100049.91
2018-05-16T04:02:46.826Z,100048.76
2018-05-16T04:05:14.630Z,100054.83
2018-05-16T04:07:42.341Z,100046.50
2018-05-16T04:10:10.215Z,100059.78
2018-05-16T04:12:38.117Z,100048.34
2018-05-16T04:15:05.947Z,100049.59
2018-05-16T04:17:33.814Z,100050.87
2018-05-16T04:20:01.477Z,100052.14
2018-05-16T04:22:29.187Z,100054.27
2018-05-16T04:24:57.006Z,100053.55
2018-05-16T04:27:24.872Z,100055.39
2018-05-16T04:29:52.586Z,100056.46
2018-05-16T04:32:20.534Z,100063.41
2018-05-16T04:34:48.268Z,100069.91
2018-05-16T04:37:15.982Z,100058.53
2018-05-16T04:39:43.750Z,100071.14
2018-05-16T04:42:11.561Z,100073.86
2018-05-16T04:44:39.220Z,100079.45
2018-05-16T04:47:06.886Z,100072.23
2018-05-16T04:49:34.549Z,100083.04
2018-05-16T04:52:02.419Z,100075.63
2018-05-16T04:54:30.180Z,100083.80
2018-05-16T04:56:58.047Z,100073.63
2018-05-16T04:59:25.811Z,100074.11
2018-05-16T05:01:53.783Z,100077.62
2018-05-16T05:04:21.544Z,100090.33
2018-05-16T05:06:49.514Z,100093.64
2018-05-16T05:09:17.347Z,100082.80
2018-05-16T05:11:45.044Z,100096.84
2018-05-16T05:14:12.909Z,100100.22
2018-05-16T05:16:40.776Z,100086.38
2018-05-16T05:19:08.444Z,100091.42
2018-05-16T05:21:36.203Z,100091.95
2018-05-16T05:24:03.868Z,100087.92
2018-05-16T05:26:31.691Z,100098.39
2018-05-16T05:28:59.408Z,100101.36
2018-05-16T05:31:27.160Z,100099.91
2018-05-16T05:33:54.921Z,100099.41
2018-05-16T05:36:22.585Z,100095.48
2018-05-16T05:38:50.401Z,100106.45
2018-05-16T05:41:18.229Z,100106.88
2018-05-16T05:43:45.963Z,100103.27
2018-05-16T05:46:13.746Z,100110.89
2018-05-16T05:48:41.630Z,100110.05
2018-05-16T05:51:09.278Z,100107.07
2018-05-16T05:53:37.099Z,100108.60
2018-05-16T05:56:04.906Z,100101.66
2018-05-16T05:58:32.672Z,100107.61
2018-05-16T06:01:00.375Z,100096.58
2018-05-16T06:03:28.204Z,100105.94
2018-05-16T06:05:55.932Z,100103.75
2018-05-16T06:08:23.711Z,100102.17
2018-05-16T06:10:51.441Z,100108.53
2018-05-16T06:13:19.099Z,100106.69
2018-05-16T06:15:46.926Z,100112.89
2018-05-16T06:18:14.788Z,100112.30
2018-05-16T06:20:43.166Z,100114.25
2018-05-16T06:23:10.930Z,100109.36
2018-05-16T06:25:38.641Z,100116.58
2018-05-16T06:28:06.504Z,100130.48
2018-05-16T06:30:34.373Z,100131.25
2018-05-16T06:33:02.188Z,100134.97
2018-05-16T06:35:29.962Z,100135.91
2018-05-16T06:37:57.724Z,100134.27
2018-05-16T06:40:25.666Z,100136.25
2018-05-16T06:42:53.554Z,100136.50
2018-05-16T06:45:21.946Z,100139.58
2018-05-16T06:47:49.711Z,100138.48
2018-05-16T06:50:17.570Z,100149.48
2018-05-16T06:52:45.216Z,100145.50
2018-05-16T06:55:13.091Z,100146.45
2018-05-16T06:57:40.864Z,100150.31
2018-05-16T07:00:08.627Z,100150.45
2018-05-16T07:02:36.318Z,100163.83
2018-05-16T07:05:04.054Z,100154.33
2018-05-16T07:07:31.711Z,100171.16
2018-05-16T07:09:59.370Z,100160.79
2018-05-16T07:12:27.107Z,100177.89
2018-05-16T07:14:54.872Z,100174.24
2018-05-16T07:17:22.773Z,100168.61
2018-05-16T07:19:50.543Z,100173.47
2018-05-16T07:22:18.164Z,100178.70
2018-05-16T07:24:45.964Z,100183.57
2018-05-16T07:27:13.627Z,100186.69
2018-05-16T07:29:41.283Z,100177.69
2018-05-16T07:32:08.951Z,100181.30
2018-05-16T07:34:36.711Z,100186.48
2018-05-16T07:37:04.586Z,100190.22
2018-05-16T07:39:32.349Z,100202.08
2018-05-16T07:42:00.219Z,100204.76
2018-05-16T07:44:27.987Z,100196.72
2018-05-16T07:46:55.841Z,100196.59
2018-05-16T07:49:23.609Z,100193.45
2018-05-16T07:51:51.271Z,100193.37
2018-05-16T07:54:18.940Z,100197.38
2018-05-16T07:56:46.757Z,100188.41
2018-05-16T07:59:14.464Z,100191.23
2018-05-16T08:01:42.193Z,100193.87
2018-05-16T08:04:10.098Z,100195.54
2018-05-16T08:06:37.860Z,100199.41
2018-05-16T08:09:05.695Z,100197.09
2018-05-16T08:11:33.415Z,100197.07
2018-05-16T08:14:01.155Z,100202.17
2018-05-16T08:16:28.918Z,100199.53
2018-05-16T08:18:56.574Z,100204.64
2018-05-16T08:21:24.237Z,100192.58
2018-05-16T08:23:52.007Z,100207.17
2018-05-16T08:26:19.872Z,100206.79
2018-05-16T08:28:47.644Z,100207.23
2018-05-16T08:31:15.458Z,100206.44
2018-05-16T08:33:43.271Z,100204.83
2018-05-16T08:36:11.139Z,100202.48
2018-05-16T08:38:38.871Z,100206.80
2018-05-16T08:41:06.665Z,100214.23
2018-05-16T08:43:34.431Z,100217.25
2018-05-16T08:46:02.206Z,100219.86
2018-05-16T08:48:29.956Z,100216.23
2018-05-16T08:50:57.723Z,100217.80
2018-05-16T08:53:25.540Z,100216.41
2018-05-16T08:55:53.210Z,100212.77
2018-05-16T08:58:21.015Z,100209.25
2018-05-16T09:00:48.785Z,100212.55
2018-05-16T09:03:16.652Z,100214.31
2018-05-16T09:05:44.413Z,100216.23
2018-05-16T09:08:12.285Z,100216.93
2018-05-16T09:10:39.915Z,100217.47
2018-05-16T09:13:07.749Z,100218.02
2018-05-16T09:15:35.574Z,100231.33
2018-05-16T09:18:03.237Z,100225.97
2018-05-16T09:20:31.115Z,100227.27
2018-05-16T09:22:59.176Z,100226.59
2018-05-16T09:25:26.836Z,100226.91
2018-05-16T09:27:54.553Z,100235.24
2018-05-16T09:30:22.172Z,100232.19
2018-05-16T09:32:49.831Z,100237.23
2018-05-16T09:35:17.685Z,100234.42
2018-05-16T09:37:45.356Z,100235.74
2018-05-16T09:40:13.074Z,100241.92
2018-05-16T09:42:40.878Z,100245.78
2018-05-16T09:45:08.751Z,100245.83
2018-05-16T09:47:37.644Z,100251.09
2018-05-16T09:50:06.701Z,100252.64
2018-05-16T09:52:34.604Z,100242.98
2018-05-16T09:55:02.537Z,100243.08
2018-05-16T09:57:30.251Z,100237.82
2018-05-16T09:59:58.096Z,100250.33
2018-05-16T10:02:25.787Z,100243.84
2018-05-16T10:04:53.634Z,100250.27
2018-05-16T10:07:21.297Z,100246.68
2018-05-16T10:09:49.227Z,100261.81
2018-05-16T10:12:16.928Z,100254.42
2018-05-16T10:14:44.770Z,100249.81
2018-05-16T10:17:12.450Z,100247.83
2018-05-16T10:19:40.219Z,100256.00
2018-05-16T10:22:07.923Z,100260.55
2018-05-16T10:24:35.747Z,100260.91
2018-05-16T10:27:03.416Z,100254.55
2018-05-16T10:29:31.277Z,100249.64
2018-05-16T10:31:59.038Z,100253.77
2018-05-16T10:34:26.921Z,100261.36
2018-05-16T10:36:54.568Z,100255.25
2018-05-16T10:39:22.392Z,100252.20
2018-05-16T10:41:50.097Z,100248.59
2018-05-16T10:44:17.926Z,100248.41
2018-05-16T10:46:45.544Z,100245.41
2018-05-16T10:49:13.396Z,100250.97
2018-05-16T10:51:41.161Z,100235.89
2018-05-16T10:54:09.141Z,100237.57
2018-05-16T10:56:36.890Z,100235.12
2018-05-16T10:59:04.959Z,100243.92
2018-05-16T11:01:32.720Z,100237.52
2018-05-16T11:04:00.793Z,100239.05
2018-05-16T11:06:28.684Z,100235.41
2018-05-16T11:08:57.343Z,100240.85
2018-05-16T11:11:25.215Z,100232.43
2018-05-16T11:13:53.202Z,100231.73
2018-05-16T11:16:21.621Z,100235.92
2018-05-16T11:18:49.535Z,100241.42
2018-05-16T11:21:17.568Z,100235.70
2018-05-16T11:23:46.132Z,100231.91
2018-05-16T11:26:13.849Z,100230.77
2018-05-16T11:28:41.556Z,100231.59
2018-05-16T11:31:09.795Z,100231.27
2018-05-16T11:33:37.657Z,100244.73
2018-05-16T11:36:05.556Z,100234.30
2018-05-16T11:38:33.282Z,100239.70
2018-05-16T11:41:01.052Z,100234.44
2018-05-16T11:43:28.711Z,100233.42
2018-05-16T11:45:56.374Z,100231.13
2018-05-16T11:48:24.142Z,100237.25
2018-05-16T11:50:51.804Z,100227.48
2018-05-16T11:53:19.569Z,100226.20
2018-05-16T11:55:47.338Z,100224.66
2018-05-16T11:58:15.403Z,100228.58
2018-05-16T12:00:43.226Z,100226.42
2018-05-16T12:03:11.038Z,100223.52
2018-05-16T12:05:38.761Z,100218.98
2018-05-16T12:08:06.564Z,100213.37
2018-05-16T12:10:34.171Z,100214.28
2018-05-16T12:13:01.828Z,100211.25
2018-05-16T12:15:29.458Z,100210.78
2018-05-16T12:17:57.110Z,100206.95
2018-05-16T12:20:24.876Z,100212.10
2018-05-16T12:22:52.744Z,100201.59
2018-05-16T12:25:20.404Z,100212.28
2018-05-16T12:27:48.169Z,100208.68
2018-05-16T12:30:15.932Z,100205.45
2018-05-16T12:32:43.869Z,100213.66
2018-05-16T12:35:11.668Z,100215.72
2018-05-16T12:37:39.435Z,100223.75
2018-05-16T12:40:07.298Z,100224.59
2018-05-16T12:42:35.236Z,100216.77
2018-05-16T12:45:02.929Z,100219.80
2018-05-16T12:47:30.748Z,100217.72
2018-05-16T12:49:58.460Z,100214.60
2018-05-16T12:52:26.222Z,100218.64
2018-05-16T12:54:53.995Z,100219.99
2018-05-16T12:57:21.747Z,100221.14
2018-05-16T12:59:49.458Z,100217.59
2018-05-16T13:02:17.179Z,100224.75
2018-05-16T13:04:44.835Z,100219.77
2018-05-16T13:07:12.658Z,100213.48
2018-05-16T13:09:40.475Z,100215.02
2018-05-16T13:12:08.126Z,100210.30
2018-05-16T13:14:35.858Z,100217.45
2018-05-16T13:17:03.664Z,100208.92
2018-05-16T13:19:31.427Z,100205.00
2018-05-16T13:21:59.091Z,100198.62
2018-05-16T13:24:26.959Z,100204.36
2018-05-16T13:26:54.740Z,100202.77
2018-05-16T13:29:22.491Z,100200.55
2018-05-16T13:31:50.306Z,100202.30
2018-05-16T13:34:18.222Z,100212.78
2018-05-16T13:36:45.938Z,100223.16
2018-05-16T13:39:13.748Z,100234.39
2018-05-16T13:41:41.513Z,100236.98
2018-05-16T13:44:09.177Z,100236.27
2018-05-16T13:46:36.940Z,100232.37
2018-05-16T13:49:05.011Z,100219.89
2018-05-16T13:51:32.715Z,100214.94
2018-05-16T13:54:00.433Z,100222.94
2018-05-16T13:56:28.144Z,100228.83
2018-05-16T13:58:55.964Z,100228.09
2018-05-16T14:01:23.677Z,100214.80
2018-05-16T14:03:51.496Z,100222.94
2018-05-16T14:06:19.363Z,100230.34
2018-05-16T14:08:47.131Z,100216.59
2018-05-16T14:11:14.997Z,100216.87
2018-05-16T14:13:42.839Z,100225.83
2018-05-16T14:16:10.524Z,100231.22
2018-05-16T14:18:38.288Z,100236.61
2018-05-16T14:21:06.067Z,100229.44
2018-05-16T14:23:33.937Z,100247.24
2018-05-16T14:26:01.786Z,100255.76
2018-05-16T14:28:29.448Z,100262.80
2018-05-16T14:30:57.230Z,100255.34
2018-05-16T14:33:25.721Z,100248.59
2018-05-16T14:35:53.905Z,100237.11
2018-05-16T14:38:21.742Z,100222.32
2018-05-16T14:40:49.476Z,100219.00
2018-05-16T14:43:17.377Z,100223.58
2018-05-16T14:45:45.233Z,100225.91
2018-05-16T14:48:13.101Z,100216.64
2018-05-16T14:50:40.867Z,100213.44
2018-05-16T14:53:08.637Z,100214.95
2018-05-16T14:55:36.459Z,100205.41
2018-05-16T14:58:04.366Z,100208.98
2018-05-16T15:00:32.167Z,100207.47
2018-05-16T15:02:59.995Z,100213.73
2018-05-16T15:05:27.822Z,100217.80
2018-05-16T15:07:55.626Z,100219.14
2018-05-16T15:10:23.355Z,100218.42
2018-05-16T15:12:51.264Z,100217.53
2018-05-16T15:15:19.025Z,100214.01
2018-05-16T15:17:46.891Z,100218.58
2018-05-16T15:20:14.595Z,100217.77
2018-05-16T15:22:42.245Z,100210.30
2018-05-16T15:25:09.980Z,100216.69
2018-05-16T15:27:37.847Z,100203.94
2018-05-16T15:30:05.918Z,100208.34
2018-05-16T15:32:33.567Z,100204.41
2018-05-16T15:35:01.205Z,100201.94
2018-05-16T15:37:28.905Z,100204.44
2018-05-16T15:39:56.669Z,100207.45
2018-05-16T15:42:24.434Z,100201.64
2018-05-16T15:44:52.140Z,100205.23
2018-05-16T15:47:20.065Z,100195.77
2018-05-16T15:49:47.932Z,100209.25
2018-05-16T15:52:15.694Z,100202.76
2018-05-16T15:54:43.463Z,100206.98
2018-05-16T15:57:11.329Z,100206.01
2018-05-16T15:59:39.052Z,100211.28
2018-05-16T16:02:07.033Z,100198.64
2018-05-16T16:04:34.935Z,100193.99
2018-05-16T16:07:03.001Z,100201.13
2018-05-16T16:09:30.764Z,100211.58
2018-05-16T16:11:58.631Z,100215.69
2018-05-16T16:14:26.501Z,100213.69
2018-05-16T16:16:54.163Z,100203.44
2018-05-16T16:19:21.923Z,100211.48
2018-05-16T16:21:49.815Z,100214.53
2018-05-16T16:24:17.656Z,100218.98
2018-05-16T16:26:45.374Z,100211.83
2018-05-16T16:29:13.186Z,100216.00
2018-05-16T16:31:40.879Z,100221.16
2018-05-16T16:34:08.716Z,100229.23
2018-05-16T16:36:36.440Z,100222.78
2018-05-16T16:39:04.414Z,100220.34
2018-05-16T16:41:32.215Z,100225.95
2018-05-16T16:44:00.086Z,100222.56
2018-05-16T16:46:27.808Z,100230.13
2018-05-16T16:48:55.814Z,100227.11
2018-05-16T16:51:23.784Z,100225.69
2018-05-16T16:53:51.651Z,100230.94
2018-05-16T16:56:19.381Z,100229.48
2018-05-16T16:58:47.181Z,100229.13
2018-05-16T17:01:14.946Z,100227.56
2018-05-16T17:03:42.752Z,100239.48
2018-05-16T17:06:10.475Z,100240.17
2018-05-16T17:08:38.237Z,100247.13
2018-05-16T17:11:05.904Z,100248.80
2018-05-16T17:13:33.766Z,100261.63
2018-05-16T17:16:02.749Z,100259.65
2018-05-16T17:18:30.476Z,100259.80
2018-05-16T17:20:58.295Z,100261.48
2018-05-16T17:23:26.058Z,100261.23
2018-05-16T17:25:54.966Z,100261.11
2018-05-16T17:28:22.722Z,100271.28
2018-05-16T17:30:50.579Z,100275.72
2018-05-16T17:33:18.341Z,100275.80
2018-05-16T17:35:46.217Z,100276.14
2018-05-16T17:38:13.869Z,100275.08
2018-05-16T17:40:41.706Z,100274.57
2018-05-16T17:43:09.396Z,100281.64
2018-05-16T17:45:37.266Z,100289.28
2018-05-16T17:48:05.036Z,100280.52
2018-05-16T17:50:32.875Z,100286.28
2018-05-16T17:53:00.764Z,100289.93
2018-05-16T17:55:28.482Z,100292.16
2018-05-16T17:57:56.199Z,100286.98
2018-05-16T18:00:23.992Z,100282.31
2018-05-16T18:02:51.822Z,100283.59
2018-05-16T18:05:19.546Z,100279.14
2018-05-16T18:07:47.352Z,100278.72
2018-05-16T18:10:15.320Z,100286.70
2018-05-16T18:12:43.088Z,100277.68
2018-05-16T18:15:22.847Z,100278.06
2018-05-16T18:17:50.499Z,100280.47
2018-05-16T18:20:18.361Z,100272.15
2018-05-16T18:22:46.126Z,100275.02
2018-05-16T18:25:13.835Z,100280.50
2018-05-16T18:27:41.494Z,100274.52
2018-05-16T18:30:09.212Z,100263.34
2018-05-16T18:32:36.879Z,100270.69
2018-05-16T18:35:04.539Z,100276.68
2018-05-16T18:37:32.186Z,100274.55
2018-05-16T18:39:59.976Z,100280.79
2018-05-16T18:42:27.865Z,100274.37
2018-05-16T18:44:55.600Z,100282.91
2018-05-16T18:47:23.465Z,100283.30
2018-05-16T18:49:51.184Z,100286.33
2018-05-16T18:52:18.844Z,100283.69
2018-05-16T18:54:46.670Z,100285.34
2018-05-16T18:57:14.479Z,100281.72
2018-05-16T18:59:42.246Z,100287.30
2018-05-16T19:02:09.898Z,100294.45
2018-05-16T19:04:37.518Z,100297.44
2018-05-16T19:07:05.263Z,100294.33
2018-05-16T19:09:32.926Z,100304.28
2018-05-16T19:12:00.586Z,100303.16
2018-05-16T19:14:28.368Z,100301.53
2018-05-16T19:16:56.228Z,100298.97
2018-05-16T19:19:24.094Z,100300.69
2018-05-16T19:21:51.753Z,100297.41
2018-05-16T19:24:19.424Z,100296.80
2018-05-16T19:26:47.075Z,100302.45
2018-05-16T19:29:14.896Z,100310.16
2018-05-16T19:31:42.711Z,100315.73
2018-05-16T19:34:10.433Z,100314.17
2018-05-16T19:36:38.241Z,100316.47
2018-05-16T19:39:06.039Z,100325.80
2018-05-16T19:41:33.769Z,100331.38
2018-05-16T19:44:01.527Z,100337.03
2018-05-16T19:46:29.406Z,100343.97
2018-05-16T19:48:57.453Z,100340.72
2018-05-16T19:51:25.239Z,100340.80
2018-05-16T19:53:53.104Z,100344.19
2018-05-16T19:56:20.795Z,100349.23
2018-05-16T19:58:48.635Z,100347.75
2018-05-16T20:01:16.396Z,100350.38
2018-05-16T20:03:44.266Z,100352.89
2018-05-16T20:06:11.984Z,100354.27
2018-05-16T20:08:39.794Z,100356.57
2018-05-16T20:11:07.659Z,100349.98
2018-05-16T20:13:35.526Z,100357.75
2018-05-16T20:16:03.266Z,100354.07
2018-05-16T20:18:31.011Z,100349.59
2018-05-16T20:20:58.819Z,100357.05
2018-05-16T20:23:26.482Z,100350.18
2018-05-16T20:25:54.247Z,100350.71
2018-05-16T20:28:22.012Z,100352.13
2018-05-16T20:30:49.981Z,100355.92
2018-05-16T20:33:17.742Z,100357.50
2018-05-16T20:35:45.613Z,100362.08
2018-05-16T20:38:13.377Z,100362.81
2018-05-16T20:40:41.244Z,100372.98
2018-05-16T20:43:08.910Z,100355.45
2018-05-16T20:45:36.671Z,100357.17
2018-05-16T20:48:04.537Z,100360.38
2018-05-16T20:50:32.404Z,100359.20
2018-05-16T20:53:00.067Z,100357.52
2018-05-16T20:55:27.932Z,100355.78
2018-05-16T20:57:55.653Z,100363.91
2018-05-16T21:00:23.463Z,100359.30
2018-05-16T21:02:51.331Z,100359.48
2018-05-16T21:05:19.277Z,100359.05
2018-05-16T21:07:47.077Z,100365.61
2018-05-16T21:10:14.826Z,100362.33
2018-05-16T21:12:42.594Z,100378.15
2018-05-16T21:15:10.460Z,100368.96
2018-05-16T21:17:38.121Z,100373.39
2018-05-16T21:20:06.189Z,100376.36
2018-05-16T21:22:33.958Z,100375.93
2018-05-16T21:25:01.617Z,100378.05
2018-05-16T21:27:29.299Z,100382.00
2018-05-16T21:29:56.935Z,100380.58
2018-05-16T21:32:24.802Z,100380.98
2018-05-16T21:34:52.592Z,100383.25
2018-05-16T21:37:20.442Z,100388.98
2018-05-16T21:39:48.313Z,100388.20
2018-05-16T21:42:16.132Z,100383.94
2018-05-16T21:44:44.273Z,100388.67
2018-05-16T21:47:12.832Z,100375.54
2018-05-16T21:49:40.487Z,100380.67
2018-05-16T21:52:08.258Z,100383.70
2018-05-16T21:54:36.083Z,100381.20
2018-05-16T21:57:04.716Z,100378.00
2018-05-16T21:59:32.419Z,100378.27
2018-05-16T22:02:00.134Z,100380.02
2018-05-16T22:04:28.104Z,100396.47
2018-05-16T22:06:55.864Z,100391.02
2018-05-16T22:09:23.685Z,100396.99
2018-05-16T22:11:51.705Z,100404.61
2018-05-16T22:14:19.469Z,100415.70
2018-05-16T22:16:47.229Z,100419.56
2018-05-16T22:19:14.952Z,100415.86
2018-05-16T22:21:42.766Z,100423.58
2018-05-16T22:24:10.485Z,100424.92
2018-05-16T22:26:38.191Z,100434.97
2018-05-16T22:29:05.895Z,100448.84
2018-05-16T22:31:39.349Z,100436.92
2018-05-16T22:34:12.640Z,100429.17
2018-05-16T22:36:46.011Z,100433.37
2018-05-16T22:39:19.227Z,100446.63
2018-05-16T22:41:52.529Z,100436.02
2018-05-16T22:44:20.292Z,100435.02
2018-05-16T22:46:48.110Z,100429.81
2018-05-16T22:49:15.924Z,100419.95
2018-05-16T22:51:43.793Z,100430.42
2018-05-16T22:54:11.506Z,100424.81
2018-05-16T22:56:39.319Z,100434.08
2018-05-16T22:59:07.144Z,100425.11
2018-05-16T23:01:34.813Z,100424.48
2018-05-16T23:04:02.578Z,100423.69
2018-05-16T23:06:30.347Z,100419.41
2018-05-16T23:08:58.085Z,100416.23
2018-05-16T23:11:25.805Z,100422.38
2018-05-16T23:13:53.619Z,100423.30
2018-05-16T23:16:21.440Z,100438.70
2018-05-16T23:18:49.409Z,100426.85
2018-05-16T23:21:17.272Z,100432.02
2018-05-16T23:23:45.038Z,100421.14
2018-05-16T23:26:12.803Z,100417.28
2018-05-16T23:28:40.669Z,100411.73
2018-05-16T23:31:08.382Z,100404.83
2018-05-16T23:33:36.301Z,100402.45
2018-05-16T23:36:04.170Z,100391.25
2018-05-16T23:38:32.041Z,100390.66
2018-05-16T23:40:59.876Z,100386.06
2018-05-16T23:43:27.668Z,100385.48
2018-05-16T23:45:55.432Z,100388.33
2018-05-16T23:48:23.153Z,100396.84
2018-05-16T23:50:50.851Z,100398.17
2018-05-16T23:53:18.685Z,100407.86
2018-05-16T23:55:46.452Z,100410.66
2018-05-16T23:58:14.250Z,100415.19
